Time;durP1;ratioP1;P1;durP2;ratioP2;P2;SDS_P1;SDS_P2;PMS_P1;PMS_P2;Temp;Humidity;BMP_temperature;BMP_pressure;BME280_temperature;BME280_humidity;BME280_pressure;Samples;Min_cycle;Max_cycle;Signal;HPM_P1;HPM_P2
2022/10/19 00:01:58;;;;;;;1.38;1.17;;;;;;;5.45;77.11;97067.19;5035388;28;20188;-63
2022/10/19 00:04:27;;;;;;;1.60;1.50;;;;;;;5.47;77.24;97055.03;5035293;28;20053;-63
2022/10/19 00:06:55;;;;;;;3.38;1.20;;;;;;;5.45;76.89;97051.63;5035319;28;20049;-62
2022/10/19 00:09:22;;;;;;;0.98;0.98;;;;;;;5.43;76.67;97046.44;5035156;28;20088;-62
2022/10/19 00:11:50;;;;;;;2.10;1.08;;;;;;;5.41;76.22;97044.72;5034408;28;20045;-63
2022/10/19 00:14:20;;;;;;;4.85;1.23;;;;;;;5.38;76.13;97043.03;5035162;28;20099;-63
2022/10/19 00:16:49;;;;;;;1.75;1.17;;;;;;;5.37;76.14;97038.72;5035114;28;20493;-63
2022/10/19 00:19:19;;;;;;;1.45;1.17;;;;;;;5.35;76.49;97019.69;5035098;28;20041;-63
2022/10/19 00:21:47;;;;;;;3.50;1.38;;;;;;;5.34;76.73;97023.16;5035168;28;20049;-62
2022/10/19 00:24:15;;;;;;;1.70;1.27;;;;;;;5.30;77.00;97019.72;5034890;28;20096;-63
2022/10/19 00:26:43;;;;;;;1.75;1.38;;;;;;;5.21;77.09;97009.44;5035136;28;20060;-63
2022/10/19 00:29:12;;;;;;;2.45;1.45;;;;;;;5.22;76.39;97008.56;5035027;28;20127;-62
2022/10/19 00:31:40;;;;;;;1.67;1.42;;;;;;;5.12;76.89;97004.34;5034836;28;20399;-63
2022/10/19 00:34:07;;;;;;;3.95;1.25;;;;;;;5.13;76.93;97004.34;5034681;28;20076;-62
2022/10/19 00:36:37;;;;;;;0.93;0.80;;;;;;;5.14;76.52;97010.38;5034576;28;20051;-62
2022/10/19 00:39:08;;;;;;;3.30;1.55;;;;;;;5.13;76.48;96996.56;5034747;28;20060;-62
2022/10/19 00:41:35;;;;;;;;;;;;;;;5.07;76.27;96996.59;5034803;28;20049;-63
2022/10/19 00:44:05;;;;;;;1.40;1.30;;;;;;;4.98;76.28;96986.31;5034479;28;20431;-62
2022/10/19 00:46:34;;;;;;;0.95;0.90;;;;;;;4.92;76.71;96985.50;5034573;28;20129;-63
2022/10/19 00:49:05;;;;;;;2.28;1.67;;;;;;;4.83;77.43;96982.09;5034443;28;20053;-62
2022/10/19 00:51:33;;;;;;;;;;;;;;;4.76;77.47;96979.56;5034868;28;20077;-64
2022/10/19 00:54:03;;;;;;;1.45;1.25;;;;;;;4.74;77.59;96977.84;5034288;28;19982;-62
2022/10/19 00:56:32;;;;;;;6.78;1.40;;;;;;;4.72;77.53;96967.50;5034405;28;20052;-63
2022/10/19 00:59:02;;;;;;;1.80;1.42;;;;;;;4.77;77.08;96962.28;5034244;28;20554;-63
2022/10/19 01:01:29;;;;;;;1.98;1.30;;;;;;;4.75;77.07;96961.41;5034051;28;20050;-63
2022/10/19 01:03:57;;;;;;;2.70;1.40;;;;;;;4.72;77.46;96958.88;5034213;28;20060;-63
2022/10/19 01:06:25;;;;;;;1.45;1.17;;;;;;;4.73;77.32;96964.03;5034024;28;20056;-63
2022/10/19 01:08:52;;;;;;;3.95;1.48;;;;;;;4.75;77.21;96961.41;5034169;28;20096;-63
2022/10/19 01:11:36;;;;;;;1.75;1.42;;;;;;;4.68;76.99;96956.31;5033936;28;20096;-63
2022/10/19 01:14:21;;;;;;;2.03;1.52;;;;;;;4.64;77.39;96956.34;5034018;28;20411;-62
2022/10/19 01:16:59;;;;;;;2.10;1.02;;;;;;;4.66;77.42;96962.34;5033875;28;20504;-63
2022/10/19 01:19:50;;;;;;;1.60;1.42;;;;;;;4.70;77.04;96952.84;5033986;28;20073;-62
2022/10/19 01:22:24;;;;;;;;;;;;;;;4.67;77.01;96949.38;5033186;28;20140;-63
2022/10/19 01:25:09;;;;;;;1.70;1.55;;;;;;;4.61;77.47;96946.84;5033902;28;19920;-62
2022/10/19 01:28:03;;;;;;;2.15;1.63;;;;;;;4.63;77.49;96945.09;5033843;28;20055;-62
2022/10/19 01:30:45;;;;;;;1.30;1.20;;;;;;;4.57;78.08;96934.78;5033718;28;20049;-62
2022/10/19 01:33:27;;;;;;;4.55;1.55;;;;;;;4.60;78.21;96936.50;5033643;28;20450;-63
2022/10/19 01:36:04;;;;;;;1.77;1.55;;;;;;;4.54;78.26;96932.19;5033525;28;20072;-62
2022/10/19 01:38:37;;;;;;;2.63;1.40;;;;;;;4.54;78.71;96930.50;5033799;28;20133;-62
2022/10/19 01:41:15;;;;;;;1.40;1.27;;;;;;;4.50;79.09;96927.94;5033574;28;20103;-62
2022/10/19 01:43:47;;;;;;;2.20;1.85;;;;;;;4.50;79.20;96925.34;5033199;28;20053;-63
2022/10/19 01:46:20;;;;;;;3.25;1.88;;;;;;;4.47;80.30;96930.53;5033495;28;20479;-62
2022/10/19 01:48:54;;;;;;;2.22;1.77;;;;;;;4.53;79.81;96926.19;5033533;28;20103;-63
2022/10/19 01:51:26;;;;;;;3.47;1.58;;;;;;;4.55;79.15;96933.94;5033531;28;20077;-63
2022/10/19 01:53:57;;;;;;;1.50;1.25;;;;;;;4.57;77.53;96926.16;5033322;28;20053;-62
2022/10/19 01:56:27;;;;;;;3.25;1.27;;;;;;;4.52;77.39;96919.25;5033591;28;20049;-63
2022/10/19 01:58:56;;;;;;;3.80;1.77;;;;;;;4.51;77.34;96917.56;5033338;28;20049;-63
2022/10/19 02:01:28;;;;;;;2.58;1.38;;;;;;;4.54;77.16;96912.34;5033229;28;20073;-62
2022/10/19 02:03:57;;;;;;;2.72;1.40;;;;;;;4.54;76.98;96909.75;5033239;28;20053;-62
2022/10/19 02:06:25;;;;;;;1.35;1.20;;;;;;;4.55;76.90;96908.03;5033466;28;20057;-63
2022/10/19 02:08:54;;;;;;;5.43;1.80;;;;;;;4.51;77.90;96904.59;5033031;28;20045;-63
2022/10/19 02:11:23;;;;;;;2.97;1.20;;;;;;;4.44;78.67;96902.94;5033117;28;20053;-63
2022/10/19 02:13:56;;;;;;;1.38;1.27;;;;;;;4.41;78.65;96903.81;5033225;28;20049;-62
2022/10/19 02:16:29;;;;;;;1.40;1.30;;;;;;;4.39;79.02;96902.09;5033087;28;20058;-63
2022/10/19 02:18:59;;;;;;;1.48;1.38;;;;;;;4.34;79.62;96901.28;5033284;28;20491;-63
2022/10/19 02:21:27;;;;;;;3.10;1.67;;;;;;;4.34;79.31;96894.38;5033220;28;20483;-63
2022/10/19 02:23:54;;;;;;;1.30;1.20;;;;;;;4.38;78.34;96896.06;5033091;28;20403;-63
2022/10/19 02:26:22;;;;;;;2.60;1.27;;;;;;;4.37;78.32;96898.66;5033029;28;20550;-63
2022/10/19 02:28:49;;;;;;;1.67;1.58;;;;;;;4.32;78.73;96887.47;5033161;28;20120;-63
2022/10/19 02:31:17;;;;;;;2.58;1.48;;;;;;;4.33;79.56;96892.63;5032897;28;20064;-62
2022/10/19 02:33:45;;;;;;;2.90;1.58;;;;;;;4.35;79.54;96890.03;5033942;28;20049;-63
2022/10/19 02:36:13;;;;;;;1.67;1.40;;;;;;;4.34;79.39;96894.38;5037034;28;20049;-63
2022/10/19 02:38:41;;;;;;;2.15;1.20;;;;;;;4.22;80.35;96890.16;5037109;28;20111;-63
2022/10/19 02:41:16;;;;;;;2.05;1.85;;;;;;;4.17;81.21;96882.41;5037248;28;20045;-62
2022/10/19 02:43:48;;;;;;;2.58;1.70;;;;;;;4.20;81.03;96878.94;5036696;28;20057;-63
2022/10/19 02:46:21;;;;;;;3.00;1.60;;;;;;;4.27;79.89;96879.72;5036553;28;20049;-63
2022/10/19 02:48:51;;;;;;;1.88;1.48;;;;;;;4.28;78.93;96881.47;5036724;28;20045;-62
2022/10/19 02:51:29;;;;;;;1.50;1.27;;;;;;;4.28;78.54;96869.34;5036611;28;20068;-63
2022/10/19 02:53:56;;;;;;;2.55;1.90;;;;;;;4.27;79.31;96875.41;5036565;28;20104;-62
2022/10/19 02:56:23;;;;;;;2.17;1.52;;;;;;;4.27;79.39;96872.81;5036733;28;20056;-63
2022/10/19 02:58:50;;;;;;;2.33;1.63;;;;;;;4.26;79.63;96875.44;5036418;28;20484;-63
2022/10/19 03:01:17;;;;;;;2.85;1.27;;;;;;;4.19;80.18;96873.75;5036554;28;20050;-63
2022/10/19 03:03:44;;;;;;;2.10;1.88;;;;;;;4.20;80.31;96872.88;5036277;28;20079;-62
2022/10/19 03:06:13;;;;;;;5.40;1.92;;;;;;;4.20;80.66;96871.16;5036308;28;20045;-63
2022/10/19 03:08:40;;;;;;;2.17;1.55;;;;;;;4.25;79.92;96874.56;5036238;28;20168;-62
2022/10/19 03:11:07;;;;;;;2.50;1.95;;;;;;;4.27;79.05;96869.38;5036286;28;20081;-63
2022/10/19 03:13:34;;;;;;;2.97;1.63;;;;;;;4.28;78.78;96863.34;5036123;28;20050;-63
2022/10/19 03:16:07;;;;;;;13.05;2.45;;;;;;;4.28;78.19;96866.75;5036272;28;20050;-62
2022/10/19 03:18:34;;;;;;;4.80;1.98;;;;;;;4.24;79.12;96870.25;5036258;28;20099;-62
2022/10/19 03:21:08;;;;;;;7.13;1.83;;;;;;;4.19;79.30;96864.28;5036072;28;20045;-62
2022/10/19 03:23:37;;;;;;;4.88;1.60;;;;;;;4.25;79.18;96865.94;5036032;28;20053;-63
2022/10/19 03:26:05;;;;;;;6.03;2.10;;;;;;;4.23;79.58;96876.31;5035880;28;20085;-63
2022/10/19 03:28:33;;;;;;;1.77;1.65;;;;;;;4.24;79.63;96866.81;5035864;28;20045;-62
2022/10/19 03:31:00;;;;;;;2.75;1.63;;;;;;;4.21;79.92;96859.91;5035793;28;20049;-62
2022/10/19 03:33:27;;;;;;;3.00;1.80;;;;;;;4.23;79.68;96858.19;5036944;28;20056;-62
2022/10/19 03:36:16;;;;;;;2.13;1.75;;;;;;;4.25;78.67;96853.84;5036418;28;20395;-63
2022/10/19 03:38:44;;;;;;;5.43;1.70;;;;;;;4.23;78.41;96846.97;5035814;28;20041;-63
2022/10/19 03:41:12;;;;;;;5.53;1.60;;;;;;;4.20;78.88;96852.16;5035896;28;20045;-63
2022/10/19 03:43:40;;;;;;;3.22;1.95;;;;;;;4.20;79.09;96849.56;5035338;28;20099;-63
2022/10/19 03:46:07;;;;;;;3.85;1.80;;;;;;;4.14;79.57;96843.59;5034643;28;20452;-63
2022/10/19 03:48:34;;;;;;;1.95;1.60;;;;;;;4.14;78.37;96843.59;5035516;28;20049;-62
2022/10/19 03:51:03;;;;;;;3.13;2.13;;;;;;;4.11;77.54;96845.31;5035520;28;20053;-63
2022/10/19 03:53:30;;;;;;;3.72;1.67;;;;;;;4.06;78.22;96840.16;5035636;28;20128;-63
2022/10/19 03:56:08;;;;;;;2.17;1.98;;;;;;;4.06;78.79;96841.91;5035747;28;20053;-62
2022/10/19 03:58:40;;;;;;;7.38;1.70;;;;;;;4.06;79.08;96845.34;5035464;28;20092;-63
2022/10/19 04:01:10;;;;;;;2.00;1.70;;;;;;;4.02;79.39;96839.34;5035250;28;20127;-63
2022/10/19 04:03:37;;;;;;;2.65;2.00;;;;;;;4.01;79.66;96829.00;5035164;28;20053;-63
2022/10/19 04:06:06;;;;;;;3.50;1.70;;;;;;;4.01;79.05;96824.66;5035253;28;20075;-62
2022/10/19 04:08:34;;;;;;;2.60;1.80;;;;;;;4.01;78.29;96826.41;5035155;28;20042;-63
2022/10/19 04:11:02;;;;;;;3.42;1.88;;;;;;;4.00;77.85;96824.72;5035218;28;20510;-63
2022/10/19 04:13:31;;;;;;;2.60;1.65;;;;;;;3.99;77.71;96822.97;5035061;28;20388;-63
2022/10/19 04:15:59;;;;;;;2.30;1.70;;;;;;;3.98;78.07;96824.72;5035243;28;20107;-63
2022/10/19 04:18:26;;;;;;;2.08;1.80;;;;;;;3.92;78.28;96820.41;5034920;28;20064;-63
2022/10/19 04:20:58;;;;;;;3.25;2.25;;;;;;;3.85;79.11;96812.72;5034996;28;20053;-63
2022/10/19 04:23:28;;;;;;;2.47;1.73;;;;;;;3.86;79.49;96817.03;5034865;28;20058;-63
2022/10/19 04:26:00;;;;;;;3.38;1.75;;;;;;;3.88;79.47;96807.50;5034873;28;20046;-63
2022/10/19 04:28:29;;;;;;;3.70;2.50;;;;;;;3.87;79.10;96816.16;5034866;28;20442;-63
2022/10/19 04:30:58;;;;;;;1.63;1.52;;;;;;;3.84;78.63;96811.84;5034735;28;20502;-63
2022/10/19 04:33:25;;;;;;;2.00;1.80;;;;;;;3.85;79.16;96820.50;5034937;28;20083;-63
2022/10/19 04:35:58;;;;;;;2.00;1.83;;;;;;;3.80;79.01;96817.94;5034732;28;20052;-63
2022/10/19 04:38:26;;;;;;;3.10;2.25;;;;;;;3.74;79.47;96815.38;5034573;28;20088;-63
2022/10/19 04:40:53;;;;;;;2.40;1.98;;;;;;;3.73;79.63;96819.69;5034458;28;20046;-63
2022/10/19 04:43:20;;;;;;;2.35;2.15;;;;;;;3.72;79.10;96811.94;5034010;28;20099;-63
2022/10/19 04:45:48;;;;;;;4.03;2.42;;;;;;;3.72;78.70;96820.56;5034376;28;20152;-63
2022/10/19 04:48:16;;;;;;;2.47;2.20;;;;;;;3.74;78.82;96812.78;5034395;28;20496;-63
2022/10/19 04:50:44;;;;;;;2.17;1.85;;;;;;;3.64;78.52;96801.63;5034533;28;20045;-63
2022/10/19 04:53:11;;;;;;;2.10;1.90;;;;;;;3.57;79.06;96805.97;5034276;28;20045;-63
2022/10/19 04:55:40;;;;;;;2.90;2.10;;;;;;;3.58;80.04;96799.09;5034283;28;20056;-62
2022/10/19 04:58:08;;;;;;;3.08;2.00;;;;;;;3.68;80.43;96803.34;5034078;28;20061;-63
2022/10/19 05:00:35;;;;;;;2.90;2.50;;;;;;;3.73;81.11;96798.16;5034199;28;20141;-62
2022/10/19 05:03:02;;;;;;;3.58;2.22;;;;;;;3.79;80.58;96800.66;5034020;28;20507;-63
2022/10/19 05:05:31;;;;;;;3.17;2.13;;;;;;;3.85;79.84;96800.63;5033945;28;20057;-63
2022/10/19 05:07:59;;;;;;;3.15;2.10;;;;;;;3.83;79.61;96797.22;5034044;28;20083;-61
2022/10/19 05:10:26;;;;;;;3.92;2.15;;;;;;;3.83;79.60;96801.50;5034035;28;20060;-63
2022/10/19 05:12:54;;;;;;;3.08;2.22;;;;;;;3.83;80.06;96804.09;5034043;28;20055;-63
2022/10/19 05:15:21;;;;;;;1.98;1.80;;;;;;;3.90;80.42;96805.78;5033895;28;20057;-63
2022/10/19 05:17:49;;;;;;;4.55;3.10;;;;;;;4.49;82.49;96805.28;5033919;28;20081;-63
2022/10/19 05:20:16;;;;;;;5.50;2.63;;;;;;;5.99;77.76;96795.66;5033753;28;20056;-62
2022/10/19 05:22:44;;;;;;;2.13;1.90;;;;;;;7.66;69.54;96792.59;5033699;28;20095;-63
2022/10/19 05:37:55;;;;;;;2.65;1.55;;;;;;;16.83;42.68;96795.44;5147447;27;20353;-66
2022/10/19 05:40:22;;;;;;;1.80;1.48;;;;;;;17.55;40.71;96794.66;5131442;27;20445;-67
2022/10/19 05:42:50;;;;;;;1.98;1.38;;;;;;;18.33;38.90;96793.38;5131415;27;20071;-67
2022/10/19 05:45:17;;;;;;;1.92;1.20;;;;;;;19.23;37.53;96795.34;5131132;27;20450;-63
2022/10/19 05:47:44;;;;;;;2.20;1.58;;;;;;;20.00;36.46;96797.97;5131144;27;20171;-67
2022/10/19 05:50:11;;;;;;;1.48;1.38;;;;;;;20.51;35.10;96798.75;5131224;28;20088;-63
2022/10/19 05:52:38;;;;;;;1.65;1.30;;;;;;;21.05;34.30;96797.41;5131217;27;20051;-65
2022/10/19 05:55:08;;;;;;;2.28;1.48;;;;;;;21.68;32.58;96795.25;5131042;28;20058;-64
2022/10/19 05:57:35;;;;;;;1.73;1.23;;;;;;;21.99;33.10;96798.13;5131064;27;20075;-67
2022/10/19 06:00:02;;;;;;;1.27;1.17;;;;;;;22.52;31.53;96793.88;5130908;28;20048;-62
2022/10/19 06:02:29;;;;;;;7.75;2.35;;;;;;;22.79;32.53;96795.22;5130956;27;20047;-64
2022/10/19 06:04:56;;;;;;;1.35;1.17;;;;;;;23.26;31.85;96795.81;5131174;27;20047;-67
2022/10/19 06:07:23;;;;;;;1.13;1.05;;;;;;;23.52;32.06;96790.91;5130751;27;20572;-63
2022/10/19 06:09:50;;;;;;;1.88;1.20;;;;;;;24.03;31.71;96784.72;5130780;28;20043;-64
2022/10/19 06:12:20;;;;;;;1.38;1.23;;;;;;;24.83;29.59;96797.19;5130599;27;20047;-60
2022/10/19 06:14:50;;;;;;;2.13;1.33;;;;;;;25.24;28.77;96799.69;5130671;28;20126;-65
2022/10/19 06:17:17;;;;;;;;;;;;;;;25.94;28.63;96794.91;5130963;27;20063;-68
2022/10/19 06:19:44;;;;;;;1.17;1.08;;;;;;;26.49;28.15;96801.25;5130610;27;19920;-64
2022/10/19 06:22:11;;;;;;;1.25;1.15;;;;;;;27.21;27.20;96794.13;5130386;28;20050;-69
2022/10/19 06:24:38;;;;;;;2.05;1.20;;;;;;;27.84;26.13;96796.69;5130786;28;20078;-65
2022/10/19 06:27:05;;;;;;;1.30;1.00;;;;;;;28.04;25.69;96791.00;5130417;27;20495;-64
2022/10/19 06:29:34;;;;;;;1.52;1.20;;;;;;;28.03;26.35;96790.19;5130343;28;20061;-64
2022/10/19 06:32:01;;;;;;;1.90;1.17;;;;;;;28.43;25.91;96789.63;5130304;28;20048;-66
2022/10/19 06:34:28;;;;;;;3.50;1.40;;;;;;;28.84;25.40;96780.75;5130234;27;20054;-65
2022/10/19 06:36:56;;;;;;;1.55;1.20;;;;;;;29.32;24.74;96788.13;5126988;28;20454;-66
2022/10/19 06:39:23;;;;;;;1.98;1.35;;;;;;;29.52;24.74;96785.88;5116478;28;20040;-63
2022/10/19 06:41:50;;;;;;;1.83;1.10;;;;;;;29.91;24.56;96789.63;5116361;27;20082;-68
2022/10/19 06:44:17;;;;;;;1.50;1.20;;;;;;;30.48;23.79;96779.56;5116443;28;20085;-61
2022/10/19 06:46:47;;;;;;;1.65;1.27;;;;;;;30.21;23.85;96768.28;5116268;28;20496;-65
2022/10/19 06:49:14;;;;;;;1.73;1.40;;;;;;;30.61;23.77;96780.84;5116292;28;20058;-63
2022/10/19 06:51:41;;;;;;;2.35;1.00;;;;;;;30.97;23.62;96777.50;5116347;28;20054;-65
2022/10/19 06:54:08;;;;;;;2.45;1.35;;;;;;;31.42;23.20;96775.94;5116367;28;20066;-68
2022/10/19 06:56:36;;;;;;;1.65;1.20;;;;;;;31.72;22.66;96778.63;5116113;28;20043;-68
2022/10/19 06:59:05;;;;;;;1.98;1.50;;;;;;;32.07;22.51;96772.63;5116084;27;20054;-66
2022/10/19 07:01:32;;;;;;;2.75;1.00;;;;;;;32.18;22.23;96769.44;5116027;28;20044;-64
2022/10/19 07:04:01;;;;;;;4.20;1.38;;;;;;;31.95;22.68;96769.56;5116124;28;20044;-66
2022/10/19 07:06:28;;;;;;;1.40;1.30;;;;;;;32.31;22.24;96765.19;5116025;28;20094;-61
2022/10/19 07:08:56;;;;;;;2.78;2.58;;;;;;;32.47;21.74;96772.25;5115778;28;20050;-67
2022/10/19 07:11:23;;;;;;;1.45;1.30;;;;;;;32.39;21.46;96770.50;5115812;28;20500;-70
2022/10/19 07:13:52;;;;;;;2.85;1.50;;;;;;;32.56;22.04;96772.97;5116014;28;20066;-67
2022/10/19 07:16:19;;;;;;;40.35;37.13;;;;;;;32.78;21.90;96771.91;5115802;27;20043;-63
2022/10/19 07:18:47;;;;;;;2.78;1.38;;;;;;;32.62;21.95;96774.88;5115786;27;20075;-63
2022/10/19 07:21:17;;;;;;;1.63;1.23;;;;;;;32.37;21.62;96770.69;5115661;28;20047;-67
2022/10/19 07:23:46;;;;;;;1.80;1.70;;;;;;;32.31;21.87;96770.59;5115664;27;20428;-64
2022/10/19 07:26:15;;;;;;;3.72;1.13;;;;;;;32.02;22.81;96765.94;5115490;28;20116;-65
2022/10/19 07:28:46;;;;;;;1.97;1.70;;;;;;;31.70;23.70;96765.31;5115477;28;20047;-66
2022/10/19 07:31:16;;;;;;;3.40;1.05;;;;;;;31.47;23.67;96762.69;5115400;28;20051;-69
2022/10/19 07:33:44;;;;;;;3.45;1.33;;;;;;;30.93;23.69;96760.00;5115521;28;20083;-65
2022/10/19 07:36:12;;;;;;;2.33;1.85;;;;;;;30.44;23.40;96766.59;5115151;28;20520;-67
2022/10/19 07:38:41;;;;;;;1.45;1.27;;;;;;;29.92;24.66;96760.81;5115250;28;20108;-67
2022/10/19 07:41:11;;;;;;;3.10;1.65;;;;;;;29.23;25.66;96768.44;5115337;28;20097;-64
2022/10/19 07:43:38;;;;;;;2.20;1.60;;;;;;;28.67;26.15;96755.69;5115219;28;20047;-67
2022/10/19 07:46:07;;;;;;;3.35;1.67;;;;;;;27.87;26.41;96750.63;5115059;27;20055;-65
2022/10/19 07:48:35;;;;;;;1.60;1.30;;;;;;;27.16;28.21;96748.13;5114512;28;20044;-68
2022/10/19 07:51:03;;;;;;;1.63;1.20;;;;;;;26.74;27.96;96748.66;5114620;28;20104;-64
2022/10/19 07:53:30;;;;;;;2.45;1.40;;;;;;;26.23;28.58;96751.88;5114986;28;20050;-66
2022/10/19 07:56:05;;;;;;;1.30;1.20;;;;;;;25.93;29.53;96748.53;5115099;28;20043;-64
2022/10/19 07:58:33;;;;;;;2.47;1.27;;;;;;;25.48;29.85;96747.47;5115030;28;20047;-63
2022/10/19 08:01:01;;;;;;;1.30;1.15;;;;;;;24.88;31.38;96741.47;5114867;28;20058;-62
2022/10/19 08:03:28;;;;;;;2.70;1.60;;;;;;;24.26;32.50;96745.28;5114796;28;20121;-62
2022/10/19 08:06:00;;;;;;;3.75;1.65;;;;;;;23.81;33.18;96744.75;5114684;28;20044;-63
2022/10/19 08:08:27;;;;;;;2.17;1.50;;;;;;;23.73;34.00;96737.44;5114702;28;20561;-60
2022/10/19 08:10:55;;;;;;;4.75;1.35;;;;;;;23.58;34.04;96736.13;5114908;28;20128;-66
2022/10/19 08:13:24;;;;;;;2.08;1.50;;;;;;;23.25;34.38;96738.06;5114617;28;20048;-66
2022/10/19 08:15:51;;;;;;;2.15;1.60;;;;;;;23.16;33.47;96729.91;5114570;28;20043;-66
2022/10/19 08:18:20;;;;;;;1.38;1.27;;;;;;;22.85;33.93;96728.03;5114632;28;20073;-60
2022/10/19 08:20:47;;;;;;;3.40;1.25;;;;;;;22.75;35.14;96727.13;5114604;28;20047;-67
2022/10/19 08:23:14;;;;;;;4.57;1.50;;;;;;;22.77;35.05;96727.88;5114435;28;20085;-66
2022/10/19 08:25:41;;;;;;;3.20;1.58;;;;;;;22.72;33.60;96727.41;5114629;28;20121;-67
2022/10/19 08:28:08;;;;;;;2.25;1.70;;;;;;;22.48;32.83;96731.13;5114284;28;20134;-66
2022/10/19 08:30:37;;;;;;;2.95;1.48;;;;;;;22.67;33.15;96719.78;5114455;28;20048;-67
2022/10/19 08:33:07;;;;;;;6.68;1.55;;;;;;;22.65;32.88;96716.41;5114334;28;20056;-66
2022/10/19 08:35:34;;;;;;;1.88;1.17;;;;;;;22.56;33.44;96725.16;5113959;28;20051;-67
2022/10/19 08:38:01;;;;;;;1.85;1.30;;;;;;;22.45;34.01;96716.25;5114259;28;20096;-61
2022/10/19 08:40:30;;;;;;;1.63;0.93;;;;;;;22.19;34.09;96727.25;5114165;28;20074;-69
2022/10/19 08:43:04;;;;;;;3.92;1.35;;;;;;;22.12;34.21;96710.09;5114121;27;20097;-63
2022/10/19 08:45:41;;;;;;;2.97;2.17;;;;;;;22.14;34.45;96704.63;5114008;28;20547;-62
2022/10/19 08:48:23;;;;;;;4.97;1.33;;;;;;;22.03;35.57;96702.88;5114052;28;20136;-65
2022/10/19 08:50:51;;;;;;;3.95;1.63;;;;;;;22.03;35.63;96700.22;5114116;28;20044;-68
2022/10/19 08:53:24;;;;;;;2.65;1.50;;;;;;;22.07;35.63;96693.66;5113994;28;20047;-67
2022/10/19 08:56:02;;;;;;;2.03;1.58;;;;;;;22.16;36.13;96694.72;5113798;28;20508;-62
2022/10/19 08:58:45;;;;;;;2.75;1.58;;;;;;;22.26;35.79;96690.31;5113883;28;20130;-64
2022/10/19 09:01:22;;;;;;;1.75;1.38;;;;;;;22.12;36.46;96688.78;5113761;28;20142;-62
2022/10/19 09:03:55;;;;;;;2.88;1.70;;;;;;;22.00;36.53;96689.81;5113683;28;20086;-61
2022/10/19 09:06:27;;;;;;;1.60;1.50;;;;;;;22.06;35.59;96689.28;5113725;28;20086;-66
2022/10/19 09:08:57;;;;;;;2.58;1.48;;;;;;;21.87;36.14;96687.28;5113801;28;20100;-63
2022/10/19 09:11:27;;;;;;;3.42;1.50;;;;;;;21.77;36.63;96682.75;5113771;28;20539;-62
2022/10/19 09:14:01;;;;;;;1.77;1.30;;;;;;;21.80;36.79;96687.81;5113533;28;20104;-60
2022/10/19 09:16:29;;;;;;;2.58;1.50;;;;;;;21.81;37.93;96678.00;5113602;28;20092;-67
2022/10/19 09:18:56;;;;;;;2.92;1.50;;;;;;;21.71;36.44;96686.69;5113775;28;20043;-62
2022/10/19 09:21:28;;;;;;;2.30;1.50;;;;;;;21.45;36.56;96679.03;5113685;28;20040;-64
2022/10/19 09:24:04;;;;;;;1.92;1.17;;;;;;;21.19;36.76;96673.97;5113579;28;20044;-67
2022/10/19 09:26:36;;;;;;;1.75;1.40;;;;;;;21.16;38.11;96673.38;5113431;28;20416;-63
2022/10/19 09:29:12;;;;;;;2.00;1.50;;;;;;;21.23;36.68;96671.06;5113560;28;20043;-65
2022/10/19 09:31:42;;;;;;;3.72;1.63;;;;;;;21.20;37.30;96666.84;5113517;28;20061;-60
2022/10/19 09:34:18;;;;;;;1.38;1.25;;;;;;;21.21;38.16;96674.69;5113562;28;20051;-63
2022/10/19 09:36:52;;;;;;;2.90;1.52;;;;;;;21.37;37.67;96667.31;5113142;28;20048;-62
2022/10/19 09:39:20;;;;;;;1.60;1.50;;;;;;;21.52;37.99;96667.91;5113572;28;20051;-61
2022/10/19 09:41:51;;;;;;;2.13;1.30;;;;;;;21.52;36.90;96660.75;5113451;28;20047;-63
2022/10/19 09:44:18;;;;;;;1.50;1.40;;;;;;;21.41;37.36;96656.31;5113500;28;20458;-65
2022/10/19 09:46:53;;;;;;;1.60;1.50;;;;;;;21.30;36.51;96654.50;5113539;28;20047;-61
2022/10/19 09:49:37;;;;;;;2.22;1.50;;;;;;;21.23;38.90;96650.66;5113176;28;20056;-60
2022/10/19 09:52:05;;;;;;;2.72;1.45;;;;;;;21.38;38.41;96659.22;5113346;28;20063;-62
2022/10/19 09:54:35;;;;;;;2.75;1.77;;;;;;;21.48;38.37;96651.31;5113196;28;20126;-66
2022/10/19 09:57:03;;;;;;;1.17;1.07;;;;;;;21.37;38.47;96636.22;5113328;28;20070;-64
2022/10/19 09:59:34;;;;;;;2.20;1.40;;;;;;;21.51;37.10;96636.91;5113251;28;20069;-67
2022/10/19 10:02:15;;;;;;;1.63;1.20;;;;;;;21.62;36.85;96646.69;5113189;28;20048;-63
2022/10/19 10:04:46;;;;;;;2.85;1.73;;;;;;;21.58;38.12;96636.31;5113179;28;20052;-65
2022/10/19 10:07:17;;;;;;;1.30;1.17;;;;;;;21.50;38.08;96630.78;5113069;28;20066;-63
2022/10/19 10:09:44;;;;;;;1.48;1.30;;;;;;;21.43;38.26;96633.06;5113177;28;20138;-63
2022/10/19 10:12:15;;;;;;;2.38;1.70;;;;;;;21.48;37.58;96627.38;5113583;28;20055;-62
2022/10/19 10:14:44;;;;;;;2.78;1.58;;;;;;;21.31;37.95;96620.78;5117110;28;20047;-62
2022/10/19 10:17:17;;;;;;;1.95;1.17;;;;;;;21.21;37.56;96623.31;5117062;28;20058;-63
2022/10/19 10:20:03;;;;;;;2.15;1.33;;;;;;;21.28;37.51;96618.38;5116921;27;20470;-64
2022/10/19 10:22:34;;;;;;;2.80;1.65;;;;;;;21.27;38.60;96614.00;5116773;28;20412;-66
2022/10/19 10:25:03;;;;;;;1.48;1.38;;;;;;;21.30;38.06;96617.25;5116775;28;20583;-66
2022/10/19 10:27:33;;;;;;;1.73;1.30;;;;;;;21.29;37.90;96610.25;5116622;28;20531;-63
2022/10/19 10:30:07;;;;;;;4.95;1.70;;;;;;;21.37;38.01;96606.13;5117096;28;20083;-63
2022/10/19 10:32:39;;;;;;;1.65;1.25;;;;;;;21.38;37.70;96598.03;5116675;28;20048;-63
2022/10/19 10:35:15;;;;;;;1.55;1.08;;;;;;;21.37;37.15;96592.84;5116670;28;20130;-62
2022/10/19 10:37:44;;;;;;;2.03;1.27;;;;;;;21.39;37.87;96599.72;5116403;28;20592;-63
2022/10/19 10:40:21;;;;;;;1.40;1.25;;;;;;;21.46;36.19;96587.59;5116518;28;20101;-63
2022/10/19 10:42:50;;;;;;;1.38;1.27;;;;;;;21.57;37.38;96594.72;5116454;28;20053;-63
2022/10/19 10:45:23;;;;;;;1.80;1.27;;;;;;;21.62;37.30;96581.03;5116387;28;20050;-64
2022/10/19 10:47:52;;;;;;;2.92;1.88;;;;;;;21.61;36.71;96575.81;5116374;28;20082;-63
2022/10/19 10:50:23;;;;;;;1.20;1.10;;;;;;;21.48;37.71;96571.50;5116558;28;20167;-61
2022/10/19 10:52:59;;;;;;;2.20;1.30;;;;;;;21.39;38.03;96570.44;5116337;28;20122;-64
2022/10/19 10:55:27;;;;;;;1.77;1.58;;;;;;;21.33;37.55;96562.97;5116119;28;20051;-64
2022/10/19 10:58:06;;;;;;;1.73;1.17;;;;;;;21.36;37.48;96560.06;5116177;28;20476;-63
2022/10/19 11:00:37;;;;;;;2.58;1.40;;;;;;;21.52;37.21;96556.97;5116070;28;20048;-65
2022/10/19 11:03:14;;;;;;;1.58;1.17;;;;;;;21.53;35.75;96547.19;5116156;28;20104;-60
2022/10/19 11:05:44;;;;;;;1.33;1.20;;;;;;;21.61;35.54;96543.91;5115898;28;20048;-63
2022/10/19 11:08:21;;;;;;;1.17;1.08;;;;;;;21.63;36.06;96542.78;5115965;28;20090;-63
2022/10/19 11:10:54;;;;;;;1.98;1.52;;;;;;;21.68;35.54;96537.94;5115933;28;20047;-63
2022/10/19 11:13:29;;;;;;;3.50;1.40;;;;;;;21.73;35.59;96536.69;5115998;28;20047;-67
2022/10/19 11:16:02;;;;;;;2.13;1.65;;;;;;;21.69;35.11;96533.44;5115781;28;20075;-63
2022/10/19 11:18:37;;;;;;;1.60;1.23;;;;;;;21.43;35.74;96526.66;5115596;28;20476;-64
2022/10/19 11:21:09;;;;;;;1.27;1.17;;;;;;;21.52;35.57;96521.56;5115758;28;20499;-62
2022/10/19 11:24:01;;;;;;;1.80;1.05;;;;;;;21.52;35.46;96521.56;5115723;28;20413;-62
2022/10/19 11:26:56;;;;;;;2.55;1.38;;;;;;;21.49;34.69;96521.81;5115487;28;20044;-65
2022/10/19 11:29:43;;;;;;;2.53;1.40;;;;;;;21.43;35.67;96528.50;5115549;28;20055;-63
2022/10/19 11:32:20;;;;;;;3.40;1.23;;;;;;;21.49;34.92;96521.81;5115437;28;20052;-65
2022/10/19 11:35:04;;;;;;;3.55;1.55;;;;;;;21.58;35.74;96513.88;5115410;28;20477;-66
2022/10/19 11:37:38;;;;;;;1.33;1.23;;;;;;;21.71;35.32;96515.53;5115124;28;20055;-62
2022/10/19 11:40:18;;;;;;;2.40;1.45;;;;;;;21.81;34.64;96508.50;5115359;28;20045;-65
2022/10/19 11:42:56;;;;;;;1.25;1.00;;;;;;;21.92;34.54;96499.59;5115288;28;20048;-63
2022/10/19 11:45:38;;;;;;;3.58;1.33;;;;;;;22.00;34.20;96503.44;5115091;28;20126;-62
2022/10/19 11:48:28;;;;;;;1.70;1.35;;;;;;;22.07;34.03;96507.25;5115076;28;20067;-62
2022/10/19 11:51:02;;;;;;;5.47;1.10;;;;;;;22.03;33.55;96501.31;5115288;28;20050;-63
2022/10/19 11:53:39;;;;;;;1.50;1.13;;;;;;;22.11;33.24;96495.34;5115020;28;20097;-63
2022/10/19 11:56:13;;;;;;;1.88;1.35;;;;;;;21.99;34.04;96496.41;5115070;27;20050;-63
2022/10/19 11:58:52;;;;;;;1.65;1.40;;;;;;;22.01;34.42;96487.31;5114999;28;20048;-65
2022/10/19 12:01:29;;;;;;;5.25;2.15;;;;;;;22.01;34.02;96489.13;5114982;28;20044;-67
2022/10/19 12:04:29;;;;;;;1.70;1.52;;;;;;;22.08;32.81;96485.81;5114856;28;20056;-62
2022/10/19 12:07:13;;;;;;;3.80;1.50;;;;;;;22.11;34.28;96487.34;5114928;28;20048;-63
2022/10/19 12:09:52;;;;;;;1.70;1.30;;;;;;;22.04;33.99;96487.06;5114764;27;20047;-64